Flight Track Log - Related Links

Times and Time Zones

All times are in EDT time to prevent confusion due to time zone crossing. See the UAL4180 flight status page for this flight to view local times or setup timezone preferences in your user account.

Time Position Orientation Groundspeed Altitude Reporting Facility
EDT Latitude Longitude Course Direction KTS MPH feet Rate Location/Type
Tue 09:11:52 PM 43.5167 -79.5833 North 20 23 500  Level Toronto Center
Tue 09:12:34 PM 43.6833 -79.5667 North 180 207 2,500 3,059 Climbing Toronto Center
Tue 09:13:34 PM 43.7333 -79.5000 44° Northeast 230 265 5,700 3,000 Climbing Toronto Center
Tue 09:14:34 PM 43.7500 -79.4333 71° East 250 288 8,500 2,450 Climbing Toronto Center
Tue 09:15:34 PM 43.7000 -79.3333 125° Southeast 300 345 10,600 2,050 Climbing Toronto Center
Tue 09:16:34 PM 43.6333 -79.2333 133° Southeast 350 403 12,600 1,800 Climbing Toronto Center
Tue 09:17:34 PM 43.5667 -79.1333 133° Southeast 360 414 14,200 1,550 Climbing Toronto Center
Tue 09:18:34 PM 43.5000 -79.0167 128° Southeast 390 449 15,700 1,500 Climbing Toronto Center
Tue 09:19:34 PM 43.4167 -78.9000 134° Southeast 400 460 17,200 1,350 Climbing Toronto Center
Tue 09:20:34 PM 43.3833 -78.7667 109° East 400 460 18,400 1,350 Climbing Toronto Center
Tue 09:21:34 PM 43.3333 -78.6167 115° Southeast 410 472 19,900 1,500 Climbing Toronto Center
Tue 09:22:34 PM 43.2667 -78.4667 121° Southeast 420 483 21,400 1,450 Climbing Toronto Center
Tue 09:23:34 PM 43.2167 -78.3333 117° Southeast 420 483 22,800 1,400 Climbing Toronto Center
Tue 09:24:34 PM 43.1833 -78.2000 109° East 420 483 24,200 1,450 Climbing Toronto Center
Tue 09:25:34 PM 43.1333 -78.0333 112° Southeast 430 495 25,700 1,350 Climbing Toronto Center
Tue 09:26:34 PM 43.0833 -77.8833 114° Southeast 420 483 26,900 650 Climbing Toronto Center
Tue 09:27:34 PM 43.0333 -77.7333 114° Southeast 440 506 27,000 50 Climbing Toronto Center
Tue 09:28:34 PM 42.9833 -77.5833 114° Southeast 460 529 27,000  Level Toronto Center
Tue 09:29:34 PM 42.9333 -77.4167 112° Southeast 470 541 27,000  Level Toronto Center
Tue 09:30:34 PM 42.8667 -77.2500 119° Southeast 470 541 27,000  Level Toronto Center
Tue 09:31:02 PM 42.8572 -77.2050 106° East 455 524 27,000  Level Boston Center
Tue 09:32:02 PM 42.8033 -77.0450 115° Southeast 455 524 27,000  Level Boston Center
Tue 09:33:02 PM 42.7583 -76.9144 115° Southeast 460 529 27,000  Level Boston Center
Tue 09:34:02 PM 42.6986 -76.7378 115° Southeast 460 529 27,000  Level Boston Center
Tue 09:35:14 PM 42.6417 -76.5814 116° Southeast 460 529 27,000  Level Boston Center
Tue 09:36:14 PM 42.5586 -76.4008 122° Southeast 465 535 27,000  Level Boston Center
Tue 09:37:14 PM 42.4928 -76.2531 121° Southeast 465 535 27,000  Level Boston Center
Tue 09:38:14 PM 42.4247 -76.1053 122° Southeast 465 535 27,000 -50 Level Boston Center
Tue 09:39:14 PM 42.3564 -75.9553 122° Southeast 465 535 26,900 -600 Descending Boston Center
Tue 09:40:14 PM 42.2861 -75.7942 120° Southeast 465 535 25,800 -1,700 Descending Boston Center
Tue 09:41:14 PM 42.2214 -75.6531 122° Southeast 458 527 23,500 -2,400 Descending Boston Center
Tue 09:42:14 PM 42.1564 -75.5153 122° Southeast 452 520 21,000 -2,500 Descending Boston Center
Tue 09:43:14 PM 42.0956 -75.3808 121° Southeast 439 505 18,500 -1,500 Descending Boston Center
Tue 09:44:14 PM 42.0406 -75.2497 119° Southeast 418 481 18,000 -250 Descending Boston Center
Tue 09:45:14 PM 41.9914 -75.1244 118° Southeast 394 453 18,000  Level Boston Center
Tue 09:46:26 PM 41.9303 -74.9656 117° Southeast 388 447 18,000 -45 Level Boston Center
Tue 09:47:26 PM 41.8828 -74.8494 119° Southeast 395 455 17,900 -1,050 Descending Boston Center
Tue 09:48:26 PM 41.7936 -74.7347 136° Southeast 396 456 15,900 -2,200 Descending Boston Center
Tue 09:49:26 PM 41.7136 -74.6622 146° Southeast 396 456 13,500 -2,350 Descending Boston Center
Tue 09:50:26 PM 41.6217 -74.5783 146° Southeast 381 438 11,200 -1,750 Descending Boston Center
Tue 09:51:26 PM 41.5581 -74.5181 145° Southeast 334 384 10,000 -1,273 Descending Boston Center
Tue 09:53:44 PM 41.4000 -74.4000 151° Southeast 265 305 7,000 -909 Descending New York TRACON
Tue 09:54:44 PM 41.3333 -74.3667 159° South 265 305 7,000 -50 Level New York TRACON
Tue 09:55:44 PM 41.2667 -74.3167 151° Southeast 264 304 6,900 -550 Descending New York TRACON
Tue 09:56:44 PM 41.2000 -74.2833 159° South 253 291 5,900 -947 Descending New York TRACON
Tue 09:57:38 PM 41.1500 -74.2500 153° Southeast 245 282 5,100 -900 Descending New York TRACON
Tue 09:58:44 PM 41.0833 -74.2000 151° Southeast 236 272 4,100 -524 Descending New York TRACON
Tue 09:59:44 PM 41.0333 -74.1667 153° Southeast 229 264 4,000 -50 Descending New York TRACON
Tue 10:00:44 PM 40.9667 -74.1333 159° South 221 254 4,000  Level New York TRACON
Tue 10:01:44 PM 40.9333 -74.0833 131° Southeast 169 194 4,000 -400 Level New York TRACON
Tue 10:02:44 PM 40.9000 -74.0500 143° Southeast 170 196 3,200 -500 Descending New York TRACON
Tue 10:03:44 PM 40.8500 -74.0500 180° South 179 206 3,000 -300 Descending New York TRACON
Tue 10:04:44 PM 40.8167 -74.0833 217° Southwest 180 207 2,600 -650 Descending New York TRACON
Tue 10:05:44 PM 40.7667 -74.1167 207° Southwest 137 158 1,700 -744 Descending New York TRACON
Tue 10:06:45 PM 40.7500 -74.1333 217° Southwest 121 139 1,100 -700 Descending New York TRACON
Tue 10:07:44 PM 40.7167 -74.1500 201° Southwest 125 144 300 -814 Descending New York TRACON
Tue 10:09:00 PM 40.6925 -74.1687 205° Southwest  Level Estimated
Tue 10:16:00 PM 40.6925 -74.1687 205° Southwest  Level Estimated
Tue 10:17:00 PM 40.6925 -74.1687 205° Southwest  Level Estimated
Tue 10:18:00 PM 40.6925 -74.1687 205° Southwest  Level Estimated

Login

Don't have an account? Register now (free) for customized features, flight alerts, and more!